createdAt,value
2018-07-21T00:01:08.674Z,32.03
2018-07-21T00:02:45.090Z,32.68
2018-07-21T00:04:22.064Z,32.81
2018-07-21T00:05:59.432Z,32.25
2018-07-21T00:07:38.144Z,32.58
2018-07-21T00:09:19.178Z,32.42
2018-07-21T00:10:57.153Z,32.62
2018-07-21T00:12:36.567Z,32.37
2018-07-21T00:14:13.836Z,32.82
2018-07-21T00:15:51.567Z,32.38
2018-07-21T00:17:30.078Z,32.25
2018-07-21T00:19:07.560Z,32.23
2018-07-21T00:20:44.571Z,32.50
2018-07-21T00:22:24.840Z,32.97
2018-07-21T00:24:04.330Z,32.50
2018-07-21T00:25:42.976Z,32.24
2018-07-21T00:27:24.957Z,32.72
2018-07-21T00:29:01.842Z,32.35
2018-07-21T00:30:38.500Z,32.37
2018-07-21T00:32:15.436Z,32.45
2018-07-21T00:33:52.790Z,32.54
2018-07-21T00:35:42.352Z,32.09
2018-07-21T00:37:25.678Z,32.85
2018-07-21T00:39:02.023Z,32.73
2018-07-21T00:40:39.658Z,33.12
2018-07-21T00:42:16.618Z,32.88
2018-07-21T00:43:56.303Z,32.89
2018-07-21T00:45:34.266Z,32.40
2018-07-21T00:47:10.742Z,32.97
2018-07-21T00:48:47.876Z,32.97
2018-07-21T00:50:25.093Z,32.84
2018-07-21T00:52:01.552Z,33.20
2018-07-21T00:53:39.414Z,33.02
2018-07-21T00:55:17.709Z,33.05
2018-07-21T00:56:55.433Z,32.73
2018-07-21T00:58:32.134Z,32.99
2018-07-21T01:00:08.826Z,32.64
2018-07-21T01:01:45.758Z,33.06
2018-07-21T01:03:23.419Z,33.19
2018-07-21T01:05:00.922Z,32.50
2018-07-21T01:06:37.499Z,33.08
2018-07-21T01:08:14.256Z,33.14
2018-07-21T01:09:54.252Z,32.96
2018-07-21T01:11:30.720Z,33.40
2018-07-21T01:13:08.611Z,33.53
2018-07-21T01:14:49.751Z,32.80
2018-07-21T01:16:27.300Z,32.80
2018-07-21T01:18:08.229Z,33.22
2018-07-21T01:19:44.539Z,33.53
2018-07-21T01:21:24.420Z,33.43
2018-07-21T01:23:12.066Z,33.30
2018-07-21T01:24:49.206Z,33.65
2018-07-21T01:26:26.442Z,33.52
2018-07-21T01:28:03.841Z,33.15
2018-07-21T01:29:40.313Z,33.65
2018-07-21T01:31:18.388Z,33.47
2018-07-21T01:32:57.212Z,33.76
2018-07-21T01:34:34.163Z,33.67
2018-07-21T01:36:10.577Z,33.24
2018-07-21T01:37:48.518Z,33.27
2018-07-21T01:39:41.942Z,33.87
2018-07-21T01:41:47.895Z,33.87
2018-07-21T01:43:33.426Z,33.52
2018-07-21T01:45:13.268Z,33.55
2018-07-21T01:46:55.964Z,33.58
2018-07-21T01:48:52.015Z,34.01
2018-07-21T01:50:36.510Z,34.10
2018-07-21T01:52:16.567Z,33.36
2018-07-21T01:53:57.829Z,33.36
2018-07-21T01:55:34.145Z,33.83
2018-07-21T01:57:12.137Z,33.95
2018-07-21T01:58:49.069Z,33.72
2018-07-21T02:00:28.031Z,33.89
2018-07-21T02:02:05.444Z,34.15
2018-07-21T02:03:47.324Z,33.63
2018-07-21T02:05:24.829Z,33.66
2018-07-21T02:07:01.301Z,33.64
2018-07-21T02:08:38.755Z,33.73
2018-07-21T02:10:15.510Z,33.78
2018-07-21T02:11:52.153Z,33.69
2018-07-21T02:13:28.652Z,33.74
2018-07-21T02:15:06.627Z,33.78
2018-07-21T02:16:43.491Z,34.03
2018-07-21T02:18:19.942Z,34.58
2018-07-21T02:19:56.472Z,33.93
2018-07-21T02:21:34.305Z,34.42
2018-07-21T02:23:10.733Z,33.81
2018-07-21T02:24:48.843Z,34.45
2018-07-21T02:26:25.314Z,34.38
2018-07-21T02:28:02.136Z,33.92
2018-07-21T02:29:39.114Z,34.22
2018-07-21T02:31:16.882Z,33.87
2018-07-21T02:32:54.515Z,34.50
2018-07-21T02:34:33.252Z,34.12
2018-07-21T02:36:10.609Z,34.02
2018-07-21T02:37:50.934Z,34.17
2018-07-21T02:39:32.659Z,34.10
2018-07-21T02:41:10.642Z,34.05
2018-07-21T02:42:48.535Z,34.72
2018-07-21T02:44:29.969Z,34.77
2018-07-21T02:46:20.982Z,34.51
2018-07-21T02:47:57.297Z,34.81
2018-07-21T02:49:34.198Z,34.88
2018-07-21T02:51:10.671Z,34.48
2018-07-21T02:52:48.064Z,34.78
2018-07-21T02:54:25.122Z,34.83
2018-07-21T02:56:03.892Z,34.69
2018-07-21T02:57:41.304Z,35.18
2018-07-21T02:59:21.072Z,34.79
2018-07-21T03:00:58.659Z,34.72
2018-07-21T03:02:35.194Z,35.23
2018-07-21T03:04:15.755Z,34.92
2018-07-21T03:05:53.932Z,35.49
2018-07-21T03:07:39.894Z,35.52
2018-07-21T03:09:19.720Z,35.83
2018-07-21T03:11:05.339Z,35.67
2018-07-21T03:12:45.304Z,35.76
2018-07-21T03:14:30.109Z,35.89
2018-07-21T03:16:15.091Z,35.36
2018-07-21T03:17:53.086Z,36.29
2018-07-21T03:19:35.793Z,35.80
2018-07-21T03:21:13.135Z,35.63
2018-07-21T03:22:50.841Z,35.67
2018-07-21T03:24:29.467Z,35.65
2018-07-21T03:26:10.252Z,36.04
2018-07-21T03:29:56.169Z,36.31
2018-07-21T03:31:46.070Z,35.87
2018-07-21T03:33:31.624Z,35.89
2018-07-21T03:35:12.655Z,36.36
2018-07-21T03:36:56.474Z,36.71
2018-07-21T03:38:47.201Z,36.09
2018-07-21T03:40:32.097Z,36.70
2018-07-21T03:42:17.316Z,36.22
2018-07-21T03:44:07.119Z,36.83
2018-07-21T03:45:44.765Z,36.64
2018-07-21T03:47:21.709Z,37.05
2018-07-21T03:48:58.193Z,36.82
2018-07-21T03:50:35.965Z,37.08
2018-07-21T03:52:13.878Z,36.71
2018-07-21T03:53:50.603Z,36.79
2018-07-21T03:55:27.605Z,37.32
2018-07-21T03:57:03.962Z,36.69
2018-07-21T03:58:40.541Z,37.11
2018-07-21T04:00:18.414Z,36.85
2018-07-21T04:01:54.733Z,36.95
2018-07-21T04:03:31.097Z,36.82
2018-07-21T04:05:10.789Z,37.34
2018-07-21T04:06:47.227Z,37.26
2018-07-21T04:08:23.486Z,37.23
2018-07-21T04:10:00.131Z,37.89
2018-07-21T04:11:36.945Z,37.81
2018-07-21T04:13:13.262Z,37.95
2018-07-21T04:14:50.494Z,38.13
2018-07-21T04:16:27.027Z,38.15
2018-07-21T04:18:05.312Z,38.20
2018-07-21T04:19:42.077Z,38.29
2018-07-21T04:21:18.413Z,38.01
2018-07-21T04:22:54.744Z,38.13
2018-07-21T04:24:31.000Z,38.21
2018-07-21T04:26:07.997Z,38.20
2018-07-21T04:27:44.733Z,38.04
2018-07-21T04:29:22.066Z,38.60
2018-07-21T04:31:06.880Z,38.22
2018-07-21T04:32:44.002Z,38.91
2018-07-21T04:34:30.017Z,38.76
2018-07-21T04:36:22.052Z,38.84
2018-07-21T04:38:02.731Z,38.44
2018-07-21T04:39:48.534Z,39.06
2018-07-21T04:41:28.605Z,38.44
2018-07-21T04:43:10.800Z,39.15
2018-07-21T04:44:47.354Z,38.99
2018-07-21T04:46:25.759Z,38.54
2018-07-21T04:48:05.346Z,38.49
2018-07-21T04:49:43.309Z,38.53
2018-07-21T04:51:22.752Z,39.28
2018-07-21T04:53:00.431Z,38.67
2018-07-21T04:54:39.637Z,39.41
2018-07-21T04:56:16.494Z,39.14
2018-07-21T04:58:00.427Z,39.21
2018-07-21T04:59:37.962Z,39.61
2018-07-21T05:01:17.061Z,39.72
2018-07-21T05:03:01.881Z,39.27
2018-07-21T05:04:44.819Z,39.27
2018-07-21T05:06:24.962Z,39.31
2018-07-21T05:08:06.981Z,39.88
2018-07-21T05:09:43.373Z,39.29
2018-07-21T05:11:19.652Z,39.64
2018-07-21T05:12:57.677Z,39.40
2018-07-21T05:14:34.861Z,39.57
2018-07-21T05:16:11.718Z,39.46
2018-07-21T05:17:53.137Z,39.54
2018-07-21T05:19:32.379Z,40.32
2018-07-21T05:21:12.293Z,39.84
2018-07-21T05:22:50.255Z,40.13
2018-07-21T05:24:28.404Z,39.93
2018-07-21T05:26:09.564Z,40.25
2018-07-21T05:27:47.874Z,40.61
2018-07-21T05:29:27.066Z,40.61
2018-07-21T05:31:05.692Z,40.77
2018-07-21T05:32:46.073Z,40.19
2018-07-21T05:34:38.771Z,40.62
2018-07-21T05:36:20.601Z,41.01
2018-07-21T05:38:00.783Z,40.39
2018-07-21T05:39:51.296Z,40.90
2018-07-21T05:41:30.372Z,40.51
2018-07-21T05:43:08.249Z,41.02
2018-07-21T05:44:44.676Z,41.00
2018-07-21T05:46:21.170Z,41.54
2018-07-21T05:47:58.083Z,41.13
2018-07-21T05:49:37.713Z,41.41
2018-07-21T05:51:14.100Z,41.08
2018-07-21T05:52:50.458Z,41.05
2018-07-21T05:56:03.466Z,41.54
2018-07-21T05:57:40.039Z,42.01
2018-07-21T05:59:22.202Z,42.03
2018-07-21T06:01:05.305Z,41.60
2018-07-21T06:02:54.929Z,41.98
2018-07-21T06:04:38.839Z,42.07
2018-07-21T06:06:21.138Z,41.61
2018-07-21T06:07:59.834Z,41.87
2018-07-21T06:09:39.910Z,42.35
2018-07-21T06:11:25.973Z,42.09
2018-07-21T06:13:05.440Z,42.40
2018-07-21T06:14:48.937Z,41.96
2018-07-21T06:18:38.454Z,41.71
2018-07-21T06:20:29.693Z,41.78
2018-07-21T06:22:07.229Z,42.35
2018-07-21T06:24:00.569Z,41.95
2018-07-21T06:25:51.309Z,42.28
2018-07-21T06:27:33.660Z,42.11
2018-07-21T06:29:15.298Z,41.86
2018-07-21T06:30:58.448Z,42.61
2018-07-21T06:32:44.103Z,42.49
2018-07-21T06:36:32.064Z,42.11
2018-07-21T06:39:10.623Z,42.40
2018-07-21T06:43:17.041Z,41.98
2018-07-21T06:45:26.627Z,42.15
2018-07-21T06:47:30.055Z,42.27
2018-07-21T06:51:47.948Z,42.71
2018-07-21T06:53:25.931Z,41.98
2018-07-21T06:55:02.721Z,42.30
2018-07-21T06:56:39.342Z,42.40
2018-07-21T06:58:15.789Z,42.51
2018-07-21T06:59:52.832Z,42.06
2018-07-21T07:01:29.336Z,42.63
2018-07-21T07:03:06.494Z,42.55
2018-07-21T07:04:42.966Z,42.31
2018-07-21T07:06:20.528Z,42.90
2018-07-21T07:07:57.720Z,42.87
2018-07-21T07:09:34.061Z,42.54
2018-07-21T07:11:11.143Z,42.63
2018-07-21T07:12:48.135Z,42.63
2018-07-21T07:14:25.644Z,42.88
2018-07-21T07:20:23.317Z,42.30
2018-07-21T07:22:01.316Z,42.71
2018-07-21T07:23:39.424Z,42.72
2018-07-21T07:25:16.417Z,42.81
2018-07-21T07:26:54.578Z,42.35
2018-07-21T07:28:40.708Z,42.94
2018-07-21T07:30:17.378Z,42.48
2018-07-21T07:31:55.374Z,42.47
2018-07-21T07:33:33.425Z,42.45
2018-07-21T07:35:10.378Z,43.00
2018-07-21T07:36:47.834Z,42.26
2018-07-21T07:38:31.519Z,42.94
2018-07-21T07:40:15.615Z,42.98
2018-07-21T07:42:01.765Z,42.35
2018-07-21T07:43:52.835Z,42.97
2018-07-21T07:45:39.296Z,42.46
2018-07-21T07:47:18.609Z,42.74
2018-07-21T07:48:54.961Z,43.00
2018-07-21T07:50:41.138Z,42.68
2018-07-21T07:52:18.708Z,42.54
2018-07-21T07:53:55.672Z,42.88
2018-07-21T07:55:35.309Z,42.23
2018-07-21T07:57:13.664Z,42.31
2018-07-21T07:58:50.008Z,42.45
2018-07-21T08:00:28.058Z,42.62
2018-07-21T08:02:13.688Z,42.99
2018-07-21T08:03:52.008Z,42.63
2018-07-21T08:05:32.401Z,42.13
2018-07-21T08:07:09.376Z,42.69
2018-07-21T08:08:46.112Z,42.64
2018-07-21T08:10:29.810Z,42.67
2018-07-21T08:12:06.122Z,42.09
2018-07-21T08:13:49.669Z,42.77
2018-07-21T08:15:30.953Z,42.13
2018-07-21T08:17:07.980Z,42.52
2018-07-21T08:18:46.934Z,42.43
2018-07-21T08:20:23.950Z,42.07
2018-07-21T08:22:06.787Z,42.44
2018-07-21T08:23:44.867Z,42.66
2018-07-21T08:25:21.273Z,41.94
2018-07-21T08:27:01.224Z,42.15
2018-07-21T08:28:38.941Z,42.44
2018-07-21T08:30:16.793Z,42.69
2018-07-21T08:31:53.615Z,41.93
2018-07-21T08:33:30.828Z,42.59
2018-07-21T08:35:08.641Z,41.69
2018-07-21T08:36:44.994Z,42.39
2018-07-21T08:38:22.219Z,42.06
2018-07-21T08:40:00.048Z,42.34
2018-07-21T08:41:42.936Z,42.14
2018-07-21T08:43:20.417Z,42.35
2018-07-21T08:44:56.851Z,42.51
2018-07-21T08:46:34.240Z,42.33
2018-07-21T08:48:14.018Z,41.68
2018-07-21T08:49:50.506Z,41.59
2018-07-21T08:51:30.427Z,42.61
2018-07-21T08:53:15.742Z,41.98
2018-07-21T08:54:54.524Z,42.29
2018-07-21T08:56:32.568Z,42.21
2018-07-21T08:58:12.297Z,41.99
2018-07-21T08:59:51.256Z,41.97
2018-07-21T09:01:28.169Z,41.35
2018-07-21T09:03:05.896Z,41.77
2018-07-21T09:04:49.947Z,42.07
2018-07-21T09:06:36.917Z,42.13
2018-07-21T09:08:25.193Z,41.88
2018-07-21T09:10:06.425Z,41.90
2018-07-21T09:11:50.065Z,42.01
2018-07-21T09:13:31.096Z,41.17
2018-07-21T09:15:19.730Z,41.93
2018-07-21T09:16:59.369Z,41.33
2018-07-21T09:19:46.465Z,41.69
2018-07-21T09:21:25.878Z,41.34
2018-07-21T09:23:07.302Z,40.83
2018-07-21T09:26:36.915Z,41.27
2018-07-21T09:28:21.027Z,41.25
2018-07-21T09:30:06.595Z,40.82
2018-07-21T09:31:49.569Z,40.79
2018-07-21T09:33:26.726Z,40.90
2018-07-21T09:35:04.456Z,41.32
2018-07-21T09:36:54.035Z,41.46
2018-07-21T09:38:35.252Z,40.82
2018-07-21T09:40:11.908Z,41.30
2018-07-21T09:41:49.689Z,40.50
2018-07-21T09:43:26.533Z,40.41
2018-07-21T09:45:08.103Z,40.88
2018-07-21T09:46:45.450Z,40.92
2018-07-21T09:48:25.648Z,40.94
2018-07-21T09:50:09.636Z,40.93
2018-07-21T09:51:49.304Z,40.38
2018-07-21T09:53:28.153Z,40.84
2018-07-21T09:55:10.826Z,40.79
2018-07-21T09:56:50.264Z,41.03
2018-07-21T09:58:35.297Z,40.73
2018-07-21T10:00:42.692Z,40.74
2018-07-21T10:02:21.468Z,40.41
2018-07-21T10:03:58.142Z,40.70
2018-07-21T10:05:42.555Z,40.52
2018-07-21T10:07:20.338Z,40.50
2018-07-21T10:08:59.083Z,40.19
2018-07-21T10:10:37.949Z,40.42
2018-07-21T10:12:18.522Z,40.27
2018-07-21T10:14:00.206Z,39.94
2018-07-21T10:15:38.859Z,40.51
2018-07-21T10:17:16.546Z,40.20
2018-07-21T10:18:57.397Z,39.75
2018-07-21T10:20:37.147Z,40.36
2018-07-21T10:22:14.433Z,40.10
2018-07-21T10:23:55.932Z,40.24
2018-07-21T10:25:40.854Z,40.22
2018-07-21T10:27:22.838Z,40.21
2018-07-21T10:29:09.682Z,39.39
2018-07-21T10:30:48.607Z,39.95
2018-07-21T10:32:31.167Z,39.69
2018-07-21T10:34:12.591Z,39.29
2018-07-21T10:35:50.228Z,39.77
2018-07-21T10:37:28.012Z,39.21
2018-07-21T10:39:16.210Z,39.44
2018-07-21T10:40:55.666Z,39.79
2018-07-21T10:42:34.294Z,39.01
2018-07-21T10:44:12.264Z,39.02
2018-07-21T10:45:51.293Z,39.62
2018-07-21T10:47:30.222Z,38.89
2018-07-21T10:49:09.190Z,39.80
2018-07-21T10:50:51.768Z,38.93
2018-07-21T10:52:31.775Z,39.20
2018-07-21T10:54:09.465Z,39.06
2018-07-21T10:55:47.046Z,39.26
2018-07-21T10:57:28.521Z,39.22
2018-07-21T11:00:47.143Z,38.89
2018-07-21T11:02:38.504Z,39.51
2018-07-21T11:04:34.691Z,39.11
2018-07-21T11:06:16.607Z,39.14
2018-07-21T11:07:55.000Z,38.90
2018-07-21T11:09:32.799Z,38.28
2018-07-21T11:11:17.118Z,38.96
2018-07-21T11:13:04.441Z,38.37
2018-07-21T11:15:13.674Z,38.93
2018-07-21T11:16:54.041Z,38.77
2018-07-21T11:18:37.464Z,38.99
2018-07-21T11:20:21.176Z,38.29
2018-07-21T11:22:01.470Z,38.41
2018-07-21T11:23:49.660Z,38.77
2018-07-21T11:27:59.242Z,38.62
2018-07-21T11:29:39.188Z,38.05
2018-07-21T11:31:25.653Z,38.21
2018-07-21T11:33:04.243Z,38.43
2018-07-21T11:34:43.352Z,38.74
2018-07-21T11:36:23.426Z,38.34
2018-07-21T11:38:01.577Z,37.87
2018-07-21T11:39:39.452Z,37.73
2018-07-21T11:41:17.495Z,38.00
2018-07-21T11:42:56.692Z,38.17
2018-07-21T11:44:33.124Z,37.70
2018-07-21T11:46:09.996Z,37.90
2018-07-21T11:47:47.524Z,38.03
2018-07-21T11:49:25.696Z,38.07
2018-07-21T11:51:10.655Z,37.53
2018-07-21T11:52:48.038Z,38.50
2018-07-21T11:54:25.363Z,37.97
2018-07-21T11:56:02.592Z,38.40
2018-07-21T11:57:39.818Z,37.41
2018-07-21T11:59:18.735Z,37.51
2018-07-21T12:00:57.736Z,37.31
2018-07-21T12:02:36.053Z,38.25
2018-07-21T12:04:13.227Z,38.13
2018-07-21T12:05:54.453Z,37.35
2018-07-21T12:07:34.436Z,37.65
2018-07-21T12:09:15.529Z,37.30
2018-07-21T12:10:54.069Z,37.35
2018-07-21T12:12:32.760Z,37.68
2018-07-21T12:14:12.560Z,37.64
2018-07-21T12:15:50.406Z,37.46
2018-07-21T12:17:27.496Z,37.68
2018-07-21T12:19:05.387Z,37.75
2018-07-21T12:20:43.231Z,37.74
2018-07-21T12:22:20.694Z,37.66
2018-07-21T12:23:57.013Z,37.20
2018-07-21T12:25:49.713Z,37.29
2018-07-21T12:27:34.582Z,37.10
2018-07-21T12:29:14.597Z,37.05
2018-07-21T12:30:53.895Z,37.18
2018-07-21T12:32:38.531Z,36.84
2018-07-21T12:34:18.665Z,36.66
2018-07-21T12:35:56.774Z,36.96
2018-07-21T12:37:40.114Z,36.61
2018-07-21T12:39:16.803Z,37.02
2018-07-21T12:40:54.575Z,37.24
2018-07-21T12:42:32.165Z,37.08
2018-07-21T12:44:08.424Z,37.02
2018-07-21T12:45:47.115Z,36.21
2018-07-21T12:47:23.927Z,36.57
2018-07-21T12:49:03.819Z,36.85
2018-07-21T12:50:42.511Z,37.12
2018-07-21T12:52:20.773Z,36.64
2018-07-21T12:54:01.784Z,36.87
2018-07-21T12:55:40.988Z,36.50
2018-07-21T12:57:19.156Z,35.91
2018-07-21T12:58:57.785Z,36.34
2018-07-21T13:00:35.329Z,36.75
2018-07-21T13:02:16.136Z,36.23
2018-07-21T13:03:58.426Z,36.40
2018-07-21T13:05:43.225Z,36.89
2018-07-21T13:07:21.419Z,36.27
2018-07-21T13:09:03.154Z,35.98
2018-07-21T13:10:41.947Z,36.04
2018-07-21T13:12:19.614Z,36.23
2018-07-21T13:14:01.964Z,36.35
2018-07-21T13:15:40.961Z,36.75
2018-07-21T13:17:18.288Z,36.24
2018-07-21T13:18:55.317Z,36.18
2018-07-21T13:20:33.480Z,35.91
2018-07-21T13:22:13.948Z,36.14
2018-07-21T13:23:52.712Z,35.77
2018-07-21T13:25:33.458Z,35.67
2018-07-21T13:27:13.684Z,36.23
2018-07-21T13:28:53.984Z,35.76
2018-07-21T13:30:31.540Z,36.60
2018-07-21T13:32:08.972Z,36.14
2018-07-21T13:33:47.835Z,36.29
2018-07-21T13:35:24.197Z,36.26
2018-07-21T13:37:01.514Z,35.86
2018-07-21T13:38:45.088Z,36.29
2018-07-21T13:40:34.420Z,36.40
2018-07-21T13:42:20.243Z,35.73
2018-07-21T13:44:00.732Z,36.12
2018-07-21T13:45:37.474Z,35.81
2018-07-21T13:47:16.145Z,35.38
2018-07-21T13:48:57.308Z,36.14
2018-07-21T13:50:36.222Z,35.26
2018-07-21T13:52:15.309Z,35.15
2018-07-21T13:53:53.990Z,35.79
2018-07-21T13:55:32.171Z,35.41
2018-07-21T13:57:14.128Z,35.85
2018-07-21T13:58:51.802Z,35.54
2018-07-21T14:00:31.195Z,35.21
2018-07-21T14:04:01.360Z,35.77
2018-07-21T14:05:41.518Z,35.91
2018-07-21T14:07:20.074Z,34.90
2018-07-21T14:09:00.503Z,35.42
2018-07-21T14:10:39.429Z,35.29
2018-07-21T14:12:15.859Z,35.18
2018-07-21T14:13:52.703Z,35.64
2018-07-21T14:15:36.274Z,35.58
2018-07-21T14:17:18.821Z,34.82
2018-07-21T14:18:58.535Z,35.11
2018-07-21T14:20:36.679Z,35.67
2018-07-21T14:22:14.841Z,35.14
2018-07-21T14:23:54.011Z,34.78
2018-07-21T14:25:35.071Z,34.61
2018-07-21T14:27:17.804Z,35.40
2018-07-21T14:28:59.551Z,35.39
2018-07-21T14:30:41.153Z,34.70
2018-07-21T14:32:22.310Z,35.41
2018-07-21T14:33:59.881Z,34.71
2018-07-21T14:35:37.939Z,34.84
2018-07-21T14:37:14.836Z,34.77
2018-07-21T14:38:53.546Z,34.78
2018-07-21T14:40:34.409Z,34.33
2018-07-21T14:42:13.037Z,34.45
2018-07-21T14:43:53.781Z,34.26
2018-07-21T14:45:39.951Z,34.67
2018-07-21T14:47:23.292Z,34.75
2018-07-21T14:49:02.254Z,34.30
2018-07-21T14:50:44.835Z,34.22
2018-07-21T14:52:33.285Z,34.08
2018-07-21T14:54:12.355Z,34.12
2018-07-21T14:55:50.422Z,34.02
2018-07-21T14:57:31.393Z,35.03
2018-07-21T14:59:07.850Z,34.53
2018-07-21T15:00:53.142Z,34.38
2018-07-21T15:02:32.594Z,33.83
2018-07-21T15:04:11.370Z,34.31
2018-07-21T15:05:52.401Z,34.72
2018-07-21T15:07:30.758Z,34.33
2018-07-21T15:09:12.256Z,33.88
2018-07-21T15:11:06.889Z,34.33
2018-07-21T15:12:45.387Z,33.79
2018-07-21T15:14:55.252Z,33.72
2018-07-21T15:16:35.606Z,34.13
2018-07-21T15:18:18.568Z,34.09
2018-07-21T15:19:57.406Z,34.18
2018-07-21T15:21:47.549Z,33.58
2018-07-21T15:23:28.621Z,33.61
2018-07-21T15:25:05.754Z,33.76
2018-07-21T15:26:43.598Z,33.65
2018-07-21T15:28:20.204Z,33.84
2018-07-21T15:30:01.542Z,33.70
2018-07-21T15:31:41.712Z,33.40
2018-07-21T15:33:22.471Z,34.25
2018-07-21T15:35:00.335Z,33.40
2018-07-21T15:36:39.262Z,34.20
2018-07-21T15:38:20.708Z,34.06
2018-07-21T15:39:58.552Z,34.14
2018-07-21T15:41:35.844Z,34.13
2018-07-21T15:43:21.963Z,33.39
2018-07-21T15:45:00.001Z,34.21
2018-07-21T15:46:37.390Z,33.08
2018-07-21T15:48:14.654Z,33.10
2018-07-21T15:49:53.972Z,33.78
2018-07-21T15:51:30.589Z,33.07
2018-07-21T15:53:08.202Z,33.45
2018-07-21T15:54:45.479Z,33.10
2018-07-21T15:56:24.562Z,33.30
2018-07-21T15:58:01.574Z,33.39
2018-07-21T15:59:38.804Z,33.57
2018-07-21T16:01:18.254Z,32.90
2018-07-21T16:03:05.712Z,32.94
2018-07-21T16:04:42.938Z,33.00
2018-07-21T16:06:25.575Z,32.78
2018-07-21T16:08:04.116Z,33.12
2018-07-21T16:09:42.647Z,33.48
2018-07-21T16:11:21.561Z,33.01
2018-07-21T16:12:58.320Z,32.78
2018-07-21T16:14:34.685Z,32.76
2018-07-21T16:16:12.505Z,32.94
2018-07-21T16:17:49.263Z,32.92
2018-07-21T16:19:25.709Z,32.79
2018-07-21T16:21:04.106Z,32.80
2018-07-21T16:22:41.233Z,33.29
2018-07-21T16:24:20.068Z,33.37
2018-07-21T16:25:57.012Z,32.72
2018-07-21T16:27:35.911Z,33.06
2018-07-21T16:29:12.609Z,33.22
2018-07-21T16:30:49.170Z,32.60
2018-07-21T16:32:33.456Z,32.71
2018-07-21T16:34:09.957Z,32.92
2018-07-21T16:35:48.696Z,32.80
2018-07-21T16:37:27.293Z,32.75
2018-07-21T16:39:16.689Z,32.70
2018-07-21T16:40:53.398Z,33.44
2018-07-21T16:42:31.669Z,33.25
2018-07-21T16:44:10.219Z,33.37
2018-07-21T16:45:49.525Z,32.84
2018-07-21T16:47:28.096Z,33.00
2018-07-21T16:49:04.668Z,33.32
2018-07-21T16:50:41.038Z,33.08
2018-07-21T16:52:18.396Z,33.18
2018-07-21T16:53:57.437Z,33.21
2018-07-21T16:55:33.885Z,33.66
2018-07-21T16:57:11.631Z,33.45
2018-07-21T16:58:49.306Z,33.12
2018-07-21T17:00:27.852Z,33.35
2018-07-21T17:02:07.495Z,33.37
2018-07-21T17:03:45.356Z,33.14
2018-07-21T17:05:21.881Z,33.45
2018-07-21T17:06:58.854Z,33.46
2018-07-21T17:08:35.435Z,33.42
2018-07-21T17:10:12.689Z,33.61
2018-07-21T17:11:49.212Z,33.15
2018-07-21T17:13:26.893Z,33.14
2018-07-21T17:15:07.116Z,33.17
2018-07-21T17:16:45.302Z,33.75
2018-07-21T17:18:22.516Z,33.31
2018-07-21T17:19:59.932Z,33.18
2018-07-21T17:21:39.446Z,33.73
2018-07-21T17:23:15.969Z,33.75
2018-07-21T17:24:53.104Z,33.73
2018-07-21T17:26:32.914Z,33.77
2018-07-21T17:28:09.364Z,33.27
2018-07-21T17:29:49.467Z,33.42
2018-07-21T17:31:26.212Z,34.06
2018-07-21T17:33:05.420Z,33.80
2018-07-21T17:34:43.896Z,33.62
2018-07-21T17:36:21.836Z,34.07
2018-07-21T17:37:59.525Z,34.08
2018-07-21T17:39:42.467Z,34.05
2018-07-21T17:41:19.782Z,33.39
2018-07-21T17:42:58.512Z,33.53
2018-07-21T17:44:35.487Z,34.21
2018-07-21T17:46:14.384Z,34.32
2018-07-21T17:47:51.954Z,34.21
2018-07-21T17:49:31.486Z,34.17
2018-07-21T17:51:13.788Z,33.81
2018-07-21T17:52:55.723Z,34.36
2018-07-21T17:54:35.197Z,34.35
2018-07-21T17:56:11.528Z,34.14
2018-07-21T17:57:48.702Z,34.35
2018-07-21T17:59:26.749Z,34.32
2018-07-21T18:01:05.865Z,34.10
2018-07-21T18:02:42.471Z,34.34
2018-07-21T18:04:19.361Z,34.56
2018-07-21T18:05:58.009Z,34.54
2018-07-21T18:07:35.751Z,34.54
2018-07-21T18:09:14.860Z,33.90
2018-07-21T18:10:52.306Z,34.65
2018-07-21T18:12:29.820Z,34.68
2018-07-21T18:14:06.466Z,34.74
2018-07-21T18:15:44.193Z,34.65
2018-07-21T18:17:21.218Z,34.08
2018-07-21T18:18:59.840Z,34.11
2018-07-21T18:20:37.981Z,34.75
2018-07-21T18:22:15.546Z,34.23
2018-07-21T18:23:52.511Z,34.16
2018-07-21T18:25:30.033Z,34.88
2018-07-21T18:27:06.557Z,34.29
2018-07-21T18:28:44.667Z,34.49
2018-07-21T18:30:25.221Z,34.21
2018-07-21T18:32:01.993Z,34.29
2018-07-21T18:33:41.416Z,34.29
2018-07-21T18:35:22.278Z,34.39
2018-07-21T18:36:59.274Z,34.38
2018-07-21T18:38:38.264Z,33.86
2018-07-21T18:40:17.279Z,33.94
2018-07-21T18:41:54.934Z,34.46
2018-07-21T18:43:31.302Z,33.87
2018-07-21T18:45:09.423Z,34.51
2018-07-21T18:46:47.434Z,34.49
2018-07-21T18:48:28.498Z,34.49
2018-07-21T18:50:07.628Z,34.46
2018-07-21T18:51:46.610Z,34.04
2018-07-21T18:53:26.449Z,34.40
2018-07-21T18:55:04.276Z,34.93
2018-07-21T18:56:42.648Z,34.21
2018-07-21T18:58:25.577Z,34.22
2018-07-21T19:00:11.791Z,34.14
2018-07-21T19:01:49.495Z,34.33
2018-07-21T19:03:33.417Z,34.25
2018-07-21T19:05:18.347Z,34.88
2018-07-21T19:06:56.827Z,34.56
2018-07-21T19:08:40.321Z,34.52
2018-07-21T19:10:18.403Z,35.14
2018-07-21T19:12:01.795Z,34.46
2018-07-21T19:13:38.820Z,35.22
2018-07-21T19:17:24.041Z,34.71
2018-07-21T19:19:00.487Z,35.30
2018-07-21T19:20:46.232Z,35.38
2018-07-21T19:22:25.491Z,35.29
2018-07-21T19:24:04.098Z,35.01
2018-07-21T19:25:49.368Z,34.96
2018-07-21T19:27:32.671Z,35.73
2018-07-21T19:29:09.797Z,35.48
2018-07-21T19:30:48.612Z,35.79
2018-07-21T19:32:33.483Z,36.03
2018-07-21T19:34:13.724Z,35.53
2018-07-21T19:35:51.558Z,35.49
2018-07-21T19:37:33.161Z,35.85
2018-07-21T19:39:13.261Z,35.90
2018-07-21T19:41:00.081Z,35.78
2018-07-21T19:42:39.974Z,36.24
2018-07-21T19:44:18.614Z,35.90
2018-07-21T19:45:59.386Z,35.92
2018-07-21T19:47:39.776Z,35.95
2018-07-21T19:49:38.652Z,35.97
2018-07-21T19:51:18.885Z,36.15
2018-07-21T19:52:58.201Z,36.73
2018-07-21T19:54:36.514Z,36.29
2018-07-21T19:56:16.983Z,36.35
2018-07-21T19:57:56.204Z,37.04
2018-07-21T19:59:35.118Z,36.50
2018-07-21T20:01:13.667Z,36.76
2018-07-21T20:02:51.864Z,37.17
2018-07-21T20:04:32.310Z,36.68
2018-07-21T20:06:12.784Z,36.82
2018-07-21T20:07:49.216Z,37.58
2018-07-21T20:09:27.169Z,36.92
2018-07-21T20:11:05.839Z,37.33
2018-07-21T20:12:42.569Z,37.76
2018-07-21T20:14:21.136Z,37.83
2018-07-21T20:15:59.565Z,37.41
2018-07-21T20:17:40.933Z,37.92
2018-07-21T20:19:22.145Z,37.29
2018-07-21T20:21:03.319Z,38.01
2018-07-21T20:22:44.279Z,37.88
2018-07-21T20:24:32.356Z,38.12
2018-07-21T20:26:19.538Z,38.33
2018-07-21T20:27:58.483Z,37.91
2018-07-21T20:29:38.018Z,37.72
2018-07-21T20:31:16.400Z,38.25
2018-07-21T20:32:56.272Z,37.93
2018-07-21T20:34:38.952Z,37.95
2018-07-21T20:36:17.555Z,38.00
2018-07-21T20:37:58.954Z,38.52
2018-07-21T20:39:37.322Z,38.84
2018-07-21T20:41:18.718Z,38.97
2018-07-21T20:42:56.454Z,38.74
2018-07-21T20:44:35.982Z,38.90
2018-07-21T20:46:14.309Z,38.62
2018-07-21T20:47:53.474Z,39.15
2018-07-21T20:49:34.490Z,38.65
2018-07-21T20:51:14.298Z,38.69
2018-07-21T20:52:53.183Z,38.85
2018-07-21T20:54:33.360Z,39.40
2018-07-21T20:56:13.375Z,39.47
2018-07-21T20:57:54.657Z,39.07
2018-07-21T20:59:39.305Z,39.78
2018-07-21T21:01:27.679Z,39.59
2018-07-21T21:03:20.968Z,39.44
2018-07-21T21:05:05.675Z,39.22
2018-07-21T21:06:57.257Z,39.30
2018-07-21T21:08:37.480Z,40.07
2018-07-21T21:10:38.508Z,40.06
2018-07-21T21:12:26.306Z,39.90
2018-07-21T21:14:06.846Z,39.92
2018-07-21T21:15:43.844Z,40.16
2018-07-21T21:17:24.334Z,40.41
2018-07-21T22:01:01.168Z,41.48
2018-07-21T22:02:42.216Z,41.68
2018-07-21T22:04:22.665Z,41.61
2018-07-21T22:06:00.259Z,41.75
2018-07-21T22:07:39.716Z,41.20
2018-07-21T22:09:20.214Z,41.13
2018-07-21T22:10:56.785Z,41.56
2018-07-21T22:12:35.786Z,41.98
2018-07-21T22:14:15.388Z,41.33
2018-07-21T22:15:54.083Z,41.55
2018-07-21T22:17:35.684Z,42.11
2018-07-21T22:19:26.137Z,42.00
2018-07-21T22:21:07.448Z,41.52
2018-07-21T22:22:43.815Z,42.03
2018-07-21T22:24:24.574Z,42.03
2018-07-21T22:26:03.132Z,41.83
2018-07-21T22:27:40.567Z,42.42
2018-07-21T22:29:16.896Z,42.50
2018-07-21T22:30:56.289Z,41.93
2018-07-21T22:32:34.262Z,41.84
2018-07-21T22:34:16.584Z,41.91
2018-07-21T22:35:56.317Z,41.79
2018-07-21T22:37:33.293Z,42.27
2018-07-21T22:39:14.394Z,42.10